createdAt,value
2023-04-15T00:00:15.963Z,1.65
2023-04-15T00:03:20.585Z,2.65
2023-04-15T00:06:23.674Z,1.75
2023-04-15T00:09:26.664Z,3.17
2023-04-15T00:12:30.990Z,3.63
2023-04-15T00:15:33.766Z,2.17
2023-04-15T00:18:37.501Z,2.42
2023-04-15T00:21:40.229Z,2.25
2023-04-15T00:24:43.144Z,2.13
2023-04-15T00:27:45.817Z,4.30
2023-04-15T00:30:50.708Z,3.55
2023-04-15T00:33:53.574Z,3.28
2023-04-15T00:36:57.287Z,3.47
2023-04-15T00:40:00.019Z,2.90
2023-04-15T00:43:02.623Z,3.80
2023-04-15T00:46:06.250Z,2.00
2023-04-15T00:49:08.843Z,3.47
2023-04-15T00:52:11.686Z,3.40
2023-04-15T00:55:14.427Z,3.70
2023-04-15T00:58:17.393Z,4.90
2023-04-15T01:01:21.994Z,3.83
2023-04-15T01:04:25.492Z,4.75
2023-04-15T01:07:28.036Z,7.15
2023-04-15T01:10:31.646Z,4.50
2023-04-15T01:13:34.684Z,4.80
2023-04-15T01:16:39.831Z,3.03
2023-04-15T01:19:42.851Z,5.10
2023-04-15T01:22:46.548Z,5.72
2023-04-15T01:25:49.931Z,4.23
2023-04-15T01:28:52.736Z,1.73
2023-04-15T01:31:57.603Z,2.47
2023-04-15T01:35:02.279Z,5.72
2023-04-15T01:38:09.224Z,4.32
2023-04-15T01:41:14.309Z,4.30
2023-04-15T01:44:17.619Z,5.53
2023-04-15T01:47:20.677Z,5.78
2023-04-15T01:50:23.388Z,5.15
2023-04-15T01:53:26.315Z,5.18
2023-04-15T01:56:28.955Z,5.53
2023-04-15T01:59:32.280Z,4.37
2023-04-15T02:02:34.900Z,6.47
2023-04-15T02:05:37.812Z,5.72
2023-04-15T02:08:40.296Z,4.37
2023-04-15T02:11:43.518Z,6.20
2023-04-15T02:14:46.243Z,5.70
2023-04-15T02:17:51.188Z,9.02
2023-04-15T02:20:53.745Z,5.87
2023-04-15T02:23:57.194Z,6.28
2023-04-15T02:26:59.724Z,5.63
2023-04-15T02:30:03.215Z,4.03
2023-04-15T02:33:05.846Z,8.27
2023-04-15T02:36:09.520Z,6.65
2023-04-15T02:39:12.797Z,8.60
2023-04-15T02:42:15.621Z,7.83
2023-04-15T02:45:20.418Z,7.63
2023-04-15T02:48:23.327Z,6.53
2023-04-15T02:51:25.968Z,4.60
2023-04-15T02:54:29.619Z,5.25
2023-04-15T02:57:32.303Z,6.33
2023-04-15T03:00:35.423Z,7.17
2023-04-15T03:03:38.087Z,7.07
2023-04-15T03:06:46.515Z,6.35
2023-04-15T03:09:49.051Z,6.30
2023-04-15T03:12:52.004Z,4.53
2023-04-15T03:15:55.033Z,7.43
2023-04-15T03:18:58.379Z,5.93
2023-04-15T03:22:01.204Z,6.62
2023-04-15T03:25:04.382Z,7.07
2023-04-15T03:28:08.323Z,6.93
2023-04-15T03:31:11.216Z,5.80
2023-04-15T03:34:13.660Z,8.93
2023-04-15T03:37:16.626Z,6.05
2023-04-15T03:40:19.181Z,6.53
2023-04-15T03:43:22.034Z,5.43
2023-04-15T03:46:24.715Z,6.13
2023-04-15T03:49:27.482Z,5.15
2023-04-15T03:52:29.894Z,6.43
2023-04-15T03:55:32.639Z,6.55
2023-04-15T03:58:35.264Z,5.77
2023-04-15T04:01:38.233Z,7.70
2023-04-15T04:04:41.102Z,6.82
2023-04-15T04:07:43.612Z,5.57
2023-04-15T04:10:46.525Z,9.40
2023-04-15T04:13:49.042Z,7.77
2023-04-15T04:16:51.809Z,5.63
2023-04-15T04:19:54.866Z,6.47
2023-04-15T04:22:58.074Z,5.10
2023-04-15T04:26:00.501Z,8.27
2023-04-15T04:29:03.697Z,6.27
2023-04-15T04:32:07.015Z,7.70
2023-04-15T04:35:10.000Z,4.80
2023-04-15T04:38:12.448Z,8.68
2023-04-15T04:41:15.269Z,7.53
2023-04-15T04:44:17.873Z,6.90
2023-04-15T04:47:20.732Z,8.13
2023-04-15T04:50:23.326Z,11.60
2023-04-15T04:53:26.417Z,5.25
2023-04-15T04:56:28.887Z,7.43
2023-04-15T04:59:32.176Z,3.57
2023-04-15T05:02:35.191Z,7.17
2023-04-15T05:05:41.113Z,6.65
2023-04-15T05:08:43.611Z,4.43
2023-04-15T05:11:46.610Z,6.62
2023-04-15T05:14:49.083Z,6.97
2023-04-15T05:17:51.879Z,5.27
2023-04-15T05:20:54.674Z,7.65
2023-04-15T05:23:57.658Z,7.68
2023-04-15T05:27:01.914Z,7.25
2023-04-15T05:30:05.504Z,6.80
2023-04-15T05:33:08.083Z,6.00
2023-04-15T05:36:10.913Z,8.38
2023-04-15T05:39:13.700Z,10.77
2023-04-15T05:42:16.796Z,6.40
2023-04-15T05:45:19.340Z,6.10
2023-04-15T05:48:22.093Z,6.50
2023-04-15T05:51:24.582Z,7.28
2023-04-15T05:54:27.899Z,6.53
2023-04-15T05:57:30.434Z,6.32
2023-04-15T06:00:33.808Z,6.80
2023-04-15T06:03:36.669Z,6.10
2023-04-15T06:06:39.216Z,3.97
2023-04-15T06:09:42.063Z,6.28
2023-04-15T06:12:44.719Z,4.72
2023-04-15T06:15:47.527Z,4.53
2023-04-15T06:18:49.938Z,5.13
2023-04-15T06:21:52.815Z,4.82
2023-04-15T06:24:55.332Z,4.10
2023-04-15T06:27:58.153Z,4.35
2023-04-15T06:31:01.985Z,4.10
2023-04-15T06:34:04.700Z,4.87
2023-04-15T06:37:07.254Z,3.12
2023-04-15T06:40:11.225Z,4.47
2023-04-15T06:43:13.881Z,4.75
2023-04-15T06:46:16.743Z,3.30
2023-04-15T06:49:19.568Z,3.87
2023-04-15T06:52:22.333Z,4.53
2023-04-15T06:55:24.834Z,3.78
2023-04-15T06:58:27.626Z,4.30
2023-04-15T07:01:30.674Z,4.47
2023-04-15T07:04:34.003Z,4.60
2023-04-15T07:07:36.805Z,4.30
2023-04-15T07:10:39.812Z,4.55
2023-04-15T07:13:42.396Z,5.45
2023-04-15T07:16:45.224Z,3.67
2023-04-15T07:19:47.994Z,2.57
2023-04-15T07:22:50.748Z,3.00
2023-04-15T07:25:53.618Z,2.90
2023-04-15T07:28:56.795Z,3.33
2023-04-15T07:31:59.377Z,3.43
2023-04-15T07:35:03.663Z,4.87
2023-04-15T07:38:06.198Z,4.30
2023-04-15T07:41:09.249Z,3.58
2023-04-15T07:44:11.775Z,3.30
2023-04-15T07:47:14.584Z,3.10
2023-04-15T07:50:17.617Z,3.57
2023-04-15T07:53:20.683Z,5.28
2023-04-15T07:56:23.574Z,5.10
2023-04-15T07:59:30.038Z,4.78
2023-04-15T08:02:33.468Z,3.80
2023-04-15T08:05:36.318Z,2.90
2023-04-15T08:08:39.021Z,3.20
2023-04-15T08:11:42.371Z,3.45
2023-04-15T08:14:44.809Z,2.80
2023-04-15T08:17:47.770Z,1.80
2023-04-15T08:20:50.288Z,2.30
2023-04-15T08:23:53.763Z,2.78
2023-04-15T08:26:57.664Z,1.90
2023-04-15T08:30:02.139Z,1.62
2023-04-15T08:33:07.098Z,1.33
2023-04-15T08:36:09.899Z,1.93
2023-04-15T08:39:12.718Z,1.55
2023-04-15T08:42:22.364Z,1.40
2023-04-15T08:45:25.091Z,1.60
2023-04-15T08:48:29.377Z,2.83
2023-04-15T08:51:32.248Z,1.47
2023-04-15T08:54:36.569Z,2.30
2023-04-15T08:57:39.996Z,2.12
2023-04-15T09:00:43.068Z,1.92
2023-04-15T09:03:46.031Z,2.47
2023-04-15T09:06:49.306Z,1.60
2023-04-15T09:09:52.376Z,2.03
2023-04-15T09:12:56.472Z,1.80
2023-04-15T09:15:58.914Z,1.50
2023-04-15T09:19:02.154Z,1.77
2023-04-15T09:22:05.031Z,1.90
2023-04-15T09:25:23.112Z,2.10
2023-04-15T09:28:28.805Z,2.15
2023-04-15T09:31:32.167Z,6.55
2023-04-15T09:34:38.119Z,4.03
2023-04-15T09:37:41.223Z,1.90
2023-04-15T09:40:43.723Z,2.15
2023-04-15T09:43:46.473Z,2.65
2023-04-15T09:46:48.944Z,2.33
2023-04-15T09:49:59.306Z,2.90
2023-04-15T09:53:03.679Z,2.00
2023-04-15T09:56:08.893Z,1.40
2023-04-15T09:59:11.369Z,1.42
2023-04-15T10:02:14.472Z,1.70
2023-04-15T10:05:18.173Z,2.20
2023-04-15T10:08:22.595Z,1.70
2023-04-15T10:11:30.334Z,1.48
2023-04-15T10:14:35.634Z,1.62
2023-04-15T10:17:39.031Z,1.83
2023-04-15T10:20:42.220Z,1.47
2023-04-15T10:23:45.993Z,1.50
2023-04-15T10:26:48.690Z,1.67
2023-04-15T10:29:51.623Z,4.57
2023-04-15T10:32:54.469Z,2.20
2023-04-15T10:35:57.966Z,1.10
2023-04-15T10:39:00.456Z,1.40
2023-04-15T10:42:08.314Z,1.00
2023-04-15T10:45:17.793Z,1.35
2023-04-15T10:48:22.822Z,2.65
2023-04-15T10:51:31.057Z,1.20
2023-04-15T10:54:36.256Z,1.43
2023-04-15T10:57:40.684Z,1.98
2023-04-15T11:00:52.323Z,2.67
2023-04-15T11:04:02.061Z,3.83
2023-04-15T11:07:06.842Z,5.20
2023-04-15T11:10:18.148Z,2.23
2023-04-15T11:13:22.716Z,2.17
2023-04-15T11:16:25.311Z,1.60
2023-04-15T11:19:36.114Z,1.67
2023-04-15T11:22:38.781Z,1.93
2023-04-15T11:25:41.884Z,1.73
2023-04-15T11:28:45.606Z,3.33
2023-04-15T11:31:51.706Z,2.30
2023-04-15T11:34:54.207Z,3.08
2023-04-15T11:37:57.283Z,2.70
2023-04-15T11:40:59.888Z,1.90
2023-04-15T11:44:02.907Z,1.10
2023-04-15T11:47:23.235Z,1.60
2023-04-15T11:50:25.984Z,1.48
2023-04-15T11:53:38.258Z,1.77
2023-04-15T11:56:41.020Z,2.90
2023-04-15T11:59:45.785Z,3.12
2023-04-15T12:02:49.444Z,2.22
2023-04-15T12:06:14.033Z,2.95
2023-04-15T12:09:20.345Z,3.93
2023-04-15T12:12:27.780Z,5.63
2023-04-15T12:15:30.349Z,4.65
2023-04-15T12:18:33.242Z,3.53
2023-04-15T12:21:38.193Z,1.23
2023-04-15T12:24:43.983Z,3.83
2023-04-15T12:27:52.145Z,3.27
2023-04-15T12:30:54.979Z,2.35
2023-04-15T12:33:58.900Z,3.95
2023-04-15T12:40:10.099Z,2.43
2023-04-15T12:43:12.800Z,2.77
2023-04-15T12:46:15.851Z,3.50
2023-04-15T12:49:20.985Z,2.83
2023-04-15T12:52:24.459Z,2.33
2023-04-15T12:55:27.760Z,1.00
2023-04-15T12:58:30.201Z,1.67
2023-04-15T13:01:33.201Z,1.60
2023-04-15T13:04:35.843Z,1.70
2023-04-15T13:07:39.072Z,2.12
2023-04-15T13:10:42.571Z,2.60
2023-04-15T13:13:45.614Z,0.93
2023-04-15T13:16:48.358Z,1.67
2023-04-15T13:19:51.371Z,0.80
2023-04-15T13:22:54.223Z,0.80
2023-04-15T13:25:57.228Z,2.20
2023-04-15T13:28:59.930Z,1.20
2023-04-15T13:32:02.906Z,1.25
2023-04-15T13:35:05.823Z,1.55
2023-04-15T13:38:08.601Z,2.50
2023-04-15T13:41:11.284Z,1.20
2023-04-15T13:44:14.717Z,1.20
2023-04-15T13:47:18.049Z,1.48
2023-04-15T13:50:20.910Z,1.30
2023-04-15T13:53:33.934Z,2.28
2023-04-15T13:56:41.995Z,1.50
2023-04-15T13:59:44.664Z,4.13
2023-04-15T14:02:48.261Z,3.28
2023-04-15T14:05:55.916Z,2.08
2023-04-15T14:08:58.481Z,1.37
2023-04-15T14:12:02.329Z,2.73
2023-04-15T14:15:05.375Z,1.20
2023-04-15T14:18:08.435Z,1.65
2023-04-15T14:21:11.041Z,1.75
2023-04-15T14:24:13.870Z,1.70
2023-04-15T14:27:16.788Z,1.30
2023-04-15T14:30:20.065Z,1.33
2023-04-15T14:33:23.016Z,0.90
2023-04-15T14:36:27.205Z,2.30
2023-04-15T14:39:30.088Z,1.65
2023-04-15T14:42:33.026Z,1.20
2023-04-15T14:45:36.359Z,1.60
2023-04-15T14:48:39.131Z,1.60
2023-04-15T14:51:41.883Z,1.55
2023-04-15T14:54:44.795Z,1.85
2023-04-15T14:57:47.603Z,2.87
2023-04-15T15:00:50.412Z,1.80
2023-04-15T15:03:53.069Z,1.98
2023-04-15T15:06:55.925Z,1.90
2023-04-15T15:09:58.482Z,0.90
2023-04-15T15:13:03.851Z,2.13
2023-04-15T15:16:06.847Z,3.80
2023-04-15T15:19:10.653Z,1.83
2023-04-15T15:22:13.385Z,2.17
2023-04-15T15:25:16.431Z,4.10
2023-04-15T15:28:19.140Z,9.00
2023-04-15T15:31:22.016Z,1.13
2023-04-15T15:34:24.472Z,1.20
2023-04-15T15:37:27.171Z,1.05
2023-04-15T15:40:29.790Z,1.75
2023-04-15T15:43:32.735Z,0.70
2023-04-15T15:46:35.259Z,1.43
2023-04-15T15:49:38.135Z,1.20
2023-04-15T15:52:41.006Z,1.15
2023-04-15T15:55:44.132Z,1.00
2023-04-15T15:58:49.526Z,0.97
2023-04-15T16:01:52.811Z,0.97
2023-04-15T16:04:55.885Z,1.73
2023-04-15T16:07:58.484Z,1.50
2023-04-15T16:11:01.392Z,1.75
2023-04-15T16:14:04.052Z,1.70
2023-04-15T16:17:07.028Z,1.17
2023-04-15T16:20:09.912Z,1.37
2023-04-15T16:23:15.482Z,3.65
2023-04-15T16:26:18.272Z,3.37
2023-04-15T16:29:21.186Z,1.90
2023-04-15T16:32:24.015Z,2.80
2023-04-15T16:35:26.762Z,2.08
2023-04-15T16:38:29.388Z,1.33
2023-04-15T16:41:34.246Z,1.87
2023-04-15T16:44:37.052Z,1.97
2023-04-15T16:47:39.831Z,3.23
2023-04-15T16:50:42.424Z,4.03
2023-04-15T16:53:45.597Z,4.20
2023-04-15T16:56:48.093Z,4.07
2023-04-15T16:59:51.382Z,3.53
2023-04-15T17:02:55.308Z,3.33
2023-04-15T17:05:58.127Z,3.53
2023-04-15T17:09:01.040Z,3.95
2023-04-15T17:12:04.734Z,4.20
2023-04-15T17:15:08.251Z,7.37
2023-04-15T17:18:12.129Z,13.37
2023-04-15T17:21:16.112Z,10.93
2023-04-15T17:24:18.994Z,8.93
2023-04-15T17:27:21.799Z,7.60
2023-04-15T17:30:24.825Z,5.80
2023-04-15T17:33:56.390Z,4.60
2023-04-15T17:36:51.472Z,3.62
2023-04-15T17:39:54.137Z,3.28
2023-04-15T17:42:58.545Z,3.42
2023-04-15T17:46:01.444Z,6.23
2023-04-15T17:49:06.092Z,8.60
2023-04-15T17:52:14.808Z,8.77
2023-04-15T17:55:17.842Z,10.63
2023-04-15T17:58:20.536Z,11.95
2023-04-15T18:01:23.511Z,17.00
2023-04-15T18:04:26.965Z,17.33
2023-04-15T18:07:29.746Z,21.70
2023-04-15T18:10:33.975Z,19.30
2023-04-15T18:13:36.680Z,18.65
2023-04-15T18:16:40.675Z,21.73
2023-04-15T18:19:43.634Z,14.90
2023-04-15T18:22:46.734Z,21.80
2023-04-15T18:25:49.492Z,32.78
2023-04-15T18:28:52.275Z,36.17
2023-04-15T18:31:55.193Z,50.93
2023-04-15T18:34:58.277Z,17.93
2023-04-15T18:38:01.068Z,15.70
2023-04-15T18:41:05.478Z,21.55
2023-04-15T18:44:08.821Z,17.80
2023-04-15T18:47:11.660Z,11.83
2023-04-15T18:50:14.382Z,13.07
2023-04-15T18:53:17.365Z,10.88
2023-04-15T18:56:20.008Z,11.27
2023-04-15T18:59:30.243Z,15.75
2023-04-15T19:02:33.546Z,19.20
2023-04-15T19:05:37.120Z,10.73
2023-04-15T19:08:40.307Z,16.85
2023-04-15T19:11:43.802Z,28.00
2023-04-15T19:14:46.423Z,18.23
2023-04-15T19:17:49.565Z,17.63
2023-04-15T19:20:55.809Z,18.60
2023-04-15T19:23:59.037Z,22.50
2023-04-15T19:27:02.182Z,27.92
2023-04-15T19:30:06.999Z,25.23
2023-04-15T19:33:09.852Z,27.43
2023-04-15T19:36:12.954Z,27.93
2023-04-15T19:39:15.866Z,24.48
2023-04-15T19:42:18.958Z,29.52
2023-04-15T19:45:21.657Z,25.45
2023-04-15T19:48:25.470Z,29.13
2023-04-15T19:51:28.649Z,37.77
2023-04-15T19:54:32.433Z,40.42
2023-04-15T19:57:35.199Z,36.03
2023-04-15T20:00:38.678Z,33.63
2023-04-15T20:03:42.336Z,27.00
2023-04-15T20:06:45.436Z,24.97
2023-04-15T20:09:48.366Z,28.55
2023-04-15T20:12:53.152Z,28.95
2023-04-15T20:15:56.562Z,32.78
2023-04-15T20:19:04.148Z,37.33
2023-04-15T20:22:07.237Z,37.43
2023-04-15T20:25:10.154Z,28.55
2023-04-15T20:28:13.322Z,17.17
2023-04-15T20:31:16.152Z,9.13
2023-04-15T20:34:19.101Z,6.17
2023-04-15T20:37:22.433Z,4.67
2023-04-15T20:40:26.042Z,3.92
2023-04-15T20:43:28.593Z,3.40
2023-04-15T20:46:31.529Z,5.15
2023-04-15T20:49:35.495Z,12.20
2023-04-15T20:52:39.065Z,14.57
2023-04-15T20:55:41.810Z,26.87
2023-04-15T20:58:44.640Z,13.45
2023-04-15T21:01:47.474Z,5.95
2023-04-15T21:04:50.633Z,4.60
2023-04-15T21:07:54.115Z,4.40
2023-04-15T21:10:57.514Z,1.73
2023-04-15T21:14:00.102Z,2.72
2023-04-15T21:17:11.113Z,3.85
2023-04-15T21:20:14.237Z,10.77
2023-04-15T21:23:17.032Z,12.47
2023-04-15T21:26:19.502Z,9.23
2023-04-15T21:29:25.881Z,9.77
2023-04-15T21:32:30.485Z,9.63
2023-04-15T21:35:33.337Z,5.60
2023-04-15T21:38:35.802Z,3.97
2023-04-15T21:41:38.652Z,6.20
2023-04-15T21:44:41.437Z,5.85
2023-04-15T21:48:01.170Z,10.20
2023-04-15T21:51:06.767Z,10.57
2023-04-15T21:54:09.550Z,12.93
2023-04-15T21:57:12.020Z,8.88
2023-04-15T22:00:15.585Z,10.25
2023-04-15T22:03:18.483Z,10.73
2023-04-15T22:06:21.453Z,11.03
2023-04-15T22:09:24.287Z,14.53
2023-04-15T22:12:26.837Z,6.70
2023-04-15T22:15:29.565Z,5.25
2023-04-15T22:18:32.337Z,4.05
2023-04-15T22:21:35.510Z,4.03
2023-04-15T22:24:40.305Z,3.73
2023-04-15T22:27:43.438Z,4.80
2023-04-15T22:30:46.098Z,4.45
2023-04-15T22:33:49.149Z,3.37
2023-04-15T22:36:52.439Z,4.70
2023-04-15T22:39:55.493Z,5.80
2023-04-15T22:42:58.167Z,5.47
2023-04-15T22:46:01.328Z,5.12
2023-04-15T22:49:08.823Z,5.37
2023-04-15T22:52:17.108Z,3.10
2023-04-15T22:55:26.143Z,6.73
2023-04-15T22:58:28.986Z,6.90
2023-04-15T23:01:32.354Z,5.65
2023-04-15T23:04:35.702Z,4.72
2023-04-15T23:07:38.313Z,3.30
2023-04-15T23:10:41.159Z,4.50
2023-04-15T23:13:43.577Z,3.75
2023-04-15T23:16:46.796Z,4.75
2023-04-15T23:19:49.295Z,4.87
2023-04-15T23:22:52.386Z,5.37
2023-04-15T23:25:54.929Z,5.67
2023-04-15T23:28:57.681Z,5.03
2023-04-15T23:32:00.600Z,5.65
2023-04-15T23:35:03.693Z,6.55
2023-04-15T23:38:06.446Z,7.53
2023-04-15T23:41:10.010Z,6.23
2023-04-15T23:44:12.841Z,5.95
2023-04-15T23:47:15.704Z,5.60
2023-04-15T23:50:18.127Z,6.68
2023-04-15T23:53:21.028Z,5.90
2023-04-15T23:56:23.541Z,5.80
2023-04-15T23:59:26.543Z,7.37
